Gloversville, New York
Current Conditions -  °F | °C
As of 6:15 PM on Friday 31 Oct 2014 (Local Time) from KNY0 Reporting Station
Clear Clear  
Wind Chill: 43°   Ceiling: Unl
Heat Index: 43°   Visibility: 10mi
Dew Point: 30°   Wind: 3mph
Humidity: 61%   Direction: 60°ENE
Pressure: 29.95"   Gusts: NA
Location:  43.06°N, 74.34°W
Report Text: KNY0 312215Z AUTO 06003KT 10SM CLR 06/M01 A2995 RMK AO2 T00601010
Loading
Personal Weather Stations






























Interactive Weather Map
Tropical Storm Tracking
New forecast layout! Learn more

10-Day Weather Forecast

Advertisements
Track Severe Weather on mobile